< < Back
Terminal Aerodrome Forecast


Current Version              Previous Versions:   1  2  3  4  5  6  7  8  9  

Terminal Aerodrome Forecast

831
FTUS42 KMLB 311100 RRA
TAFMCO
TAF
KMCO 311145Z 3112/0112 35007KT P6SM SCT020 BKN070
     FM311500 30009KT P6SM SCT030 BKN080
     FM311900 31011KT P6SM SCT035 SCT080
     FM010000 29009KT P6SM FEW030 SCT250=

Latest METAR

785
SAUS70 KWBC 010200 RRX
MTRMCO
METAR KMCO 010153Z 28008KT 10SM CLR 19/11 A2990 RMK AO2 SLP122
T01890106


USA.gov is the U.S. government's official web portal to all federal, state and local government web resources and services.